sensor_id;sensor_type;location;lat;lon;timestamp;pressure;altitude;pressure_sealevel;temperature;humidity
43824;BME280;29470;53.550;9.926;2022-12-18T00:05:01;102564.59;;;-3.76;100.00
43824;BME280;29470;53.550;9.926;2022-12-18T00:10:05;102560.91;;;-3.78;99.06
43824;BME280;29470;53.550;9.926;2022-12-18T00:15:08;102568.72;;;-4.15;100.00
43824;BME280;29470;53.550;9.926;2022-12-18T00:20:13;102572.28;;;-3.97;100.00
43824;BME280;29470;53.550;9.926;2022-12-18T00:25:16;102576.00;;;-3.90;100.00
43824;BME280;29470;53.550;9.926;2022-12-18T00:30:19;102585.28;;;-4.11;100.00
43824;BME280;29470;53.550;9.926;2022-12-18T00:35:23;102599.19;;;-4.25;100.00
43824;BME280;29470;53.550;9.926;2022-12-18T00:40:26;102597.88;;;-4.17;100.00
43824;BME280;29470;53.550;9.926;2022-12-18T00:45:31;102590.69;;;-3.93;100.00
43824;BME280;29470;53.550;9.926;2022-12-18T00:50:35;102579.19;;;-3.96;99.95
43824;BME280;29470;53.550;9.926;2022-12-18T00:55:39;102589.84;;;-3.82;99.45
43824;BME280;29470;53.550;9.926;2022-12-18T01:00:43;102586.00;;;-4.07;99.84
43824;BME280;29470;53.550;9.926;2022-12-18T01:05:48;102600.25;;;-4.07;100.00
43824;BME280;29470;53.550;9.926;2022-12-18T01:10:52;102610.34;;;-4.07;100.00
43824;BME280;29470;53.550;9.926;2022-12-18T01:15:58;102590.97;;;-3.86;99.20
43824;BME280;29470;53.550;9.926;2022-12-18T01:21:07;102599.22;;;-3.87;96.85
43824;BME280;29470;53.550;9.926;2022-12-18T01:26:13;102590.25;;;-3.90;97.99
43824;BME280;29470;53.550;9.926;2022-12-18T01:31:19;102596.94;;;-4.18;99.13
43824;BME280;29470;53.550;9.926;2022-12-18T01:36:25;102593.91;;;-4.26;100.00
43824;BME280;29470;53.550;9.926;2022-12-18T01:41:30;102599.16;;;-4.31;99.62
43824;BME280;29470;53.550;9.926;2022-12-18T01:46:54;102599.72;;;-4.16;98.98
43824;BME280;29470;53.550;9.926;2022-12-18T01:51:58;102610.66;;;-4.27;97.35
43824;BME280;29470;53.550;9.926;2022-12-18T01:57:01;102614.97;;;-4.05;98.09
43824;BME280;29470;53.550;9.926;2022-12-18T02:02:04;102614.31;;;-4.31;98.40
43824;BME280;29470;53.550;9.926;2022-12-18T02:07:15;102615.00;;;-4.32;98.76
43824;BME280;29470;53.550;9.926;2022-12-18T02:12:31;102615.38;;;-4.13;98.53
43824;BME280;29470;53.550;9.926;2022-12-18T02:17:39;102613.38;;;-4.31;97.82
43824;BME280;29470;53.550;9.926;2022-12-18T02:22:57;102630.25;;;-4.47;99.29
43824;BME280;29470;53.550;9.926;2022-12-18T02:28:07;102630.88;;;-4.27;98.84
43824;BME280;29470;53.550;9.926;2022-12-18T02:33:13;102626.56;;;-4.22;96.88
43824;BME280;29470;53.550;9.926;2022-12-18T02:38:17;102628.81;;;-4.24;96.43
43824;BME280;29470;53.550;9.926;2022-12-18T02:43:25;102617.81;;;-4.24;96.78
43824;BME280;29470;53.550;9.926;2022-12-18T02:48:32;102632.91;;;-4.30;96.58
43824;BME280;29470;53.550;9.926;2022-12-18T02:53:38;102627.06;;;-4.14;95.53
43824;BME280;29470;53.550;9.926;2022-12-18T02:58:52;102644.75;;;-4.40;96.78
43824;BME280;29470;53.550;9.926;2022-12-18T03:04:10;102641.84;;;-4.32;97.27
43824;BME280;29470;53.550;9.926;2022-12-18T03:09:19;102634.47;;;-4.36;96.05
43824;BME280;29470;53.550;9.926;2022-12-18T03:14:28;102639.59;;;-4.31;95.48
43824;BME280;29470;53.550;9.926;2022-12-18T03:19:33;102645.13;;;-4.27;95.21
43824;BME280;29470;53.550;9.926;2022-12-18T03:24:37;102648.22;;;-4.40;95.12
43824;BME280;29470;53.550;9.926;2022-12-18T03:29:48;102642.81;;;-4.26;94.46
43824;BME280;29470;53.550;9.926;2022-12-18T03:35:01;102648.69;;;-4.64;94.95
43824;BME280;29470;53.550;9.926;2022-12-18T03:40:09;102647.63;;;-4.54;94.83
43824;BME280;29470;53.550;9.926;2022-12-18T03:45:20;102643.25;;;-4.55;94.43
43824;BME280;29470;53.550;9.926;2022-12-18T03:50:32;102644.31;;;-4.65;95.66
43824;BME280;29470;53.550;9.926;2022-12-18T03:55:40;102649.19;;;-4.82;96.15
43824;BME280;29470;53.550;9.926;2022-12-18T04:00:47;102647.38;;;-4.77;96.36
43824;BME280;29470;53.550;9.926;2022-12-18T04:05:52;102639.28;;;-4.86;97.01
43824;BME280;29470;53.550;9.926;2022-12-18T04:10:57;102641.78;;;-4.65;96.61
43824;BME280;29470;53.550;9.926;2022-12-18T04:16:03;102654.53;;;-4.75;96.53
43824;BME280;29470;53.550;9.926;2022-12-18T04:21:06;102646.34;;;-4.68;95.69
43824;BME280;29470;53.550;9.926;2022-12-18T04:26:10;102645.66;;;-4.67;95.88
43824;BME280;29470;53.550;9.926;2022-12-18T04:31:25;102651.25;;;-4.79;96.71
43824;BME280;29470;53.550;9.926;2022-12-18T04:36:28;102638.91;;;-4.78;96.31
43824;BME280;29470;53.550;9.926;2022-12-18T04:41:31;102627.31;;;-4.66;96.19
43824;BME280;29470;53.550;9.926;2022-12-18T04:46:35;102629.34;;;-4.69;94.69
43824;BME280;29470;53.550;9.926;2022-12-18T04:51:38;102631.63;;;-4.70;94.92
43824;BME280;29470;53.550;9.926;2022-12-18T04:56:41;102639.69;;;-4.67;96.44
43824;BME280;29470;53.550;9.926;2022-12-18T05:01:45;102638.94;;;-4.72;95.51
43824;BME280;29470;53.550;9.926;2022-12-18T05:06:48;102654.53;;;-4.75;95.09
43824;BME280;29470;53.550;9.926;2022-12-18T05:11:51;102663.94;;;-4.95;94.75
43824;BME280;29470;53.550;9.926;2022-12-18T05:16:56;102674.81;;;-5.06;95.98
43824;BME280;29470;53.550;9.926;2022-12-18T05:22:02;102668.06;;;-4.95;95.34
43824;BME280;29470;53.550;9.926;2022-12-18T05:27:08;102674.63;;;-4.86;95.36
43824;BME280;29470;53.550;9.926;2022-12-18T05:32:12;102672.44;;;-4.94;93.93
43824;BME280;29470;53.550;9.926;2022-12-18T05:37:15;102681.97;;;-5.03;93.56
43824;BME280;29470;53.550;9.926;2022-12-18T05:42:19;102695.78;;;-5.17;94.15
43824;BME280;29470;53.550;9.926;2022-12-18T05:47:23;102691.16;;;-5.04;94.76
43824;BME280;29470;53.550;9.926;2022-12-18T05:52:27;102695.28;;;-5.20;93.82
43824;BME280;29470;53.550;9.926;2022-12-18T05:57:30;102688.81;;;-5.23;95.16
43824;BME280;29470;53.550;9.926;2022-12-18T06:02:35;102688.31;;;-5.11;96.04
43824;BME280;29470;53.550;9.926;2022-12-18T06:07:38;102688.34;;;-5.05;96.72
43824;BME280;29470;53.550;9.926;2022-12-18T06:12:41;102696.03;;;-5.15;96.09
43824;BME280;29470;53.550;9.926;2022-12-18T06:17:45;102700.78;;;-5.01;95.76
43824;BME280;29470;53.550;9.926;2022-12-18T06:22:48;102694.19;;;-5.16;95.44
43824;BME280;29470;53.550;9.926;2022-12-18T06:27:51;102699.06;;;-5.12;95.35
43824;BME280;29470;53.550;9.926;2022-12-18T06:32:55;102703.84;;;-5.13;95.00
43824;BME280;29470;53.550;9.926;2022-12-18T06:37:58;102715.94;;;-5.01;93.47
43824;BME280;29470;53.550;9.926;2022-12-18T06:43:00;102715.75;;;-4.97;93.39
43824;BME280;29470;53.550;9.926;2022-12-18T06:48:05;102712.34;;;-5.13;93.75
43824;BME280;29470;53.550;9.926;2022-12-18T06:53:07;102716.47;;;-5.29;93.60
43824;BME280;29470;53.550;9.926;2022-12-18T06:58:10;102715.13;;;-5.27;94.24
43824;BME280;29470;53.550;9.926;2022-12-18T07:03:15;102706.19;;;-5.09;94.40
43824;BME280;29470;53.550;9.926;2022-12-18T07:08:17;102722.91;;;-5.31;94.10
43824;BME280;29470;53.550;9.926;2022-12-18T07:13:20;102728.00;;;-5.25;94.38
43824;BME280;29470;53.550;9.926;2022-12-18T07:18:25;102731.63;;;-5.29;95.03
43824;BME280;29470;53.550;9.926;2022-12-18T07:23:27;102731.63;;;-5.29;95.71
43824;BME280;29470;53.550;9.926;2022-12-18T07:28:31;102739.13;;;-5.19;94.29
43824;BME280;29470;53.550;9.926;2022-12-18T07:33:35;102732.44;;;-5.19;94.31
43824;BME280;29470;53.550;9.926;2022-12-18T07:38:39;102735.81;;;-5.24;94.20
43824;BME280;29470;53.550;9.926;2022-12-18T07:43:42;102748.75;;;-5.17;96.06
43824;BME280;29470;53.550;9.926;2022-12-18T07:48:47;102747.00;;;-4.96;95.56
43824;BME280;29470;53.550;9.926;2022-12-18T07:53:51;102751.19;;;-4.91;94.36
43824;BME280;29470;53.550;9.926;2022-12-18T07:58:54;102756.78;;;-4.82;93.82
43824;BME280;29470;53.550;9.926;2022-12-18T08:03:58;102751.41;;;-4.74;92.98
43824;BME280;29470;53.550;9.926;2022-12-18T08:09:17;102743.78;;;-4.80;94.07
43824;BME280;29470;53.550;9.926;2022-12-18T08:14:27;102747.63;;;-4.82;93.66
43824;BME280;29470;53.550;9.926;2022-12-18T08:19:33;102740.41;;;-4.53;92.00
43824;BME280;29470;53.550;9.926;2022-12-18T08:24:36;102738.53;;;-4.54;91.42
43824;BME280;29470;53.550;9.926;2022-12-18T08:29:39;102739.97;;;-4.51;90.85
43824;BME280;29470;53.550;9.926;2022-12-18T08:34:43;102738.06;;;-4.57;90.42
43824;BME280;29470;53.550;9.926;2022-12-18T08:39:46;102732.91;;;-4.48;90.76
43824;BME280;29470;53.550;9.926;2022-12-18T08:44:49;102738.22;;;-4.40;89.54
43824;BME280;29470;53.550;9.926;2022-12-18T08:49:53;102740.56;;;-4.36;89.69
43824;BME280;29470;53.550;9.926;2022-12-18T08:54:56;102748.78;;;-3.95;89.56
43824;BME280;29470;53.550;9.926;2022-12-18T08:59:59;102746.94;;;-3.96;86.67
43824;BME280;29470;53.550;9.926;2022-12-18T09:05:04;102741.66;;;-3.97;86.96
43824;BME280;29470;53.550;9.926;2022-12-18T09:10:08;102750.81;;;-3.77;87.11
43824;BME280;29470;53.550;9.926;2022-12-18T09:15:11;102742.00;;;-3.85;86.01
43824;BME280;29470;53.550;9.926;2022-12-18T09:20:17;102735.53;;;-3.61;86.02
43824;BME280;29470;53.550;9.926;2022-12-18T09:25:20;102735.38;;;-3.46;85.34
43824;BME280;29470;53.550;9.926;2022-12-18T09:30:24;102746.94;;;-3.36;84.58
43824;BME280;29470;53.550;9.926;2022-12-18T09:35:30;102747.13;;;-3.46;84.63
43824;BME280;29470;53.550;9.926;2022-12-18T09:40:35;102732.78;;;-3.19;84.00
43824;BME280;29470;53.550;9.926;2022-12-18T09:45:46;102747.75;;;-2.82;82.95
43824;BME280;29470;53.550;9.926;2022-12-18T09:50:53;102746.31;;;-2.86;81.58
43824;BME280;29470;53.550;9.926;2022-12-18T09:56:00;102732.75;;;-2.81;81.78
43824;BME280;29470;53.550;9.926;2022-12-18T10:01:09;102746.38;;;-2.74;81.43
43824;BME280;29470;53.550;9.926;2022-12-18T10:06:14;102745.94;;;-2.72;82.82
43824;BME280;29470;53.550;9.926;2022-12-18T10:11:29;102747.59;;;-2.61;82.57
43824;BME280;29470;53.550;9.926;2022-12-18T10:16:43;102749.25;;;-2.44;81.75
43824;BME280;29470;53.550;9.926;2022-12-18T10:21:59;102749.50;;;-2.37;81.67
43824;BME280;29470;53.550;9.926;2022-12-18T10:27:12;102749.94;;;-2.40;81.53
43824;BME280;29470;53.550;9.926;2022-12-18T10:32:18;102761.50;;;-2.30;81.93
43824;BME280;29470;53.550;9.926;2022-12-18T10:37:24;102760.06;;;-2.45;81.17
43824;BME280;29470;53.550;9.926;2022-12-18T10:42:27;102749.78;;;-2.13;81.45
43824;BME280;29470;53.550;9.926;2022-12-18T10:47:32;102746.34;;;-2.02;80.80
43824;BME280;29470;53.550;9.926;2022-12-18T10:52:37;102750.03;;;-2.05;81.34
43824;BME280;29470;53.550;9.926;2022-12-18T10:57:48;102728.38;;;-1.86;80.79
43824;BME280;29470;53.550;9.926;2022-12-18T11:02:53;102730.19;;;-1.74;80.44
43824;BME280;29470;53.550;9.926;2022-12-18T11:08:00;102724.88;;;-1.70;79.93
43824;BME280;29470;53.550;9.926;2022-12-18T11:13:16;102718.91;;;-1.76;80.58
43824;BME280;29470;53.550;9.926;2022-12-18T11:18:26;102725.13;;;-1.80;80.46
43824;BME280;29470;53.550;9.926;2022-12-18T11:23:31;102734.38;;;-1.80;80.53
43824;BME280;29470;53.550;9.926;2022-12-18T11:28:36;102720.53;;;-1.82;80.77
43824;BME280;29470;53.550;9.926;2022-12-18T11:33:42;102713.16;;;-1.81;81.26
43824;BME280;29470;53.550;9.926;2022-12-18T11:39:14;102708.28;;;-1.68;80.52
43824;BME280;29470;53.550;9.926;2022-12-18T11:44:23;102705.31;;;-1.82;79.96
43824;BME280;29470;53.550;9.926;2022-12-18T11:49:32;102700.69;;;-1.62;81.03
43824;BME280;29470;53.550;9.926;2022-12-18T11:54:37;102700.69;;;-1.73;80.57
43824;BME280;29470;53.550;9.926;2022-12-18T11:59:44;102680.41;;;-1.79;80.67
43824;BME280;29470;53.550;9.926;2022-12-18T12:05:10;102674.19;;;-1.81;80.83
43824;BME280;29470;53.550;9.926;2022-12-18T12:10:29;102653.22;;;-2.03;81.10
43824;BME280;29470;53.550;9.926;2022-12-18T12:15:43;102669.13;;;-1.93;81.68
43824;BME280;29470;53.550;9.926;2022-12-18T12:20:58;102666.56;;;-1.87;81.28
43824;BME280;29470;53.550;9.926;2022-12-18T12:26:07;102646.94;;;-1.76;80.61
43824;BME280;29470;53.550;9.926;2022-12-18T12:31:19;102630.31;;;-1.63;79.95
43824;BME280;29470;53.550;9.926;2022-12-18T12:36:32;102615.06;;;-1.57;80.07
43824;BME280;29470;53.550;9.926;2022-12-18T12:41:41;102604.00;;;-1.64;79.60
43824;BME280;29470;53.550;9.926;2022-12-18T12:47:10;102597.09;;;-1.59;79.32
43824;BME280;29470;53.550;9.926;2022-12-18T12:52:18;102596.56;;;-1.45;77.87
43824;BME280;29470;53.550;9.926;2022-12-18T12:57:33;102594.25;;;-1.38;77.77
43824;BME280;29470;53.550;9.926;2022-12-18T13:02:39;102590.81;;;-1.44;77.82
43824;BME280;29470;53.550;9.926;2022-12-18T13:07:49;102587.78;;;-1.36;77.14
43824;BME280;29470;53.550;9.926;2022-12-18T13:12:59;102586.13;;;-1.29;77.28
43824;BME280;29470;53.550;9.926;2022-12-18T13:18:12;102593.91;;;-1.11;76.46
43824;BME280;29470;53.550;9.926;2022-12-18T13:23:28;102585.94;;;-1.37;77.10
43824;BME280;29470;53.550;9.926;2022-12-18T13:28:52;102593.78;;;-1.41;76.96
43824;BME280;29470;53.550;9.926;2022-12-18T13:34:12;102584.00;;;-1.79;77.12
43824;BME280;29470;53.550;9.926;2022-12-18T13:39:32;102576.41;;;-1.96;78.91
43824;BME280;29470;53.550;9.926;2022-12-18T13:44:39;102569.75;;;-2.24;79.72
43824;BME280;29470;53.550;9.926;2022-12-18T13:49:44;102581.31;;;-2.32;80.85
43824;BME280;29470;53.550;9.926;2022-12-18T13:54:50;102598.81;;;-2.33;81.35
43824;BME280;29470;53.550;9.926;2022-12-18T13:59:56;102576.69;;;-2.46;82.19
43824;BME280;29470;53.550;9.926;2022-12-18T14:04:59;102573.47;;;-2.50;82.53
43824;BME280;29470;53.550;9.926;2022-12-18T14:10:03;102576.69;;;-2.52;82.49
43824;BME280;29470;53.550;9.926;2022-12-18T14:15:31;102578.53;;;-2.62;82.86
43824;BME280;29470;53.550;9.926;2022-12-18T14:20:36;102580.81;;;-2.69;83.01
43824;BME280;29470;53.550;9.926;2022-12-18T14:25:46;102556.19;;;-2.70;83.54
43824;BME280;29470;53.550;9.926;2022-12-18T14:30:50;102558.44;;;-2.89;83.51
43824;BME280;29470;53.550;9.926;2022-12-18T14:35:56;102560.75;;;-2.96;84.44
43824;BME280;29470;53.550;9.926;2022-12-18T14:41:01;102578.00;;;-3.05;84.52
43824;BME280;29470;53.550;9.926;2022-12-18T14:46:24;102566.25;;;-3.04;85.37
43824;BME280;29470;53.550;9.926;2022-12-18T14:51:30;102563.72;;;-3.04;85.37
43824;BME280;29470;53.550;9.926;2022-12-18T14:56:35;102559.13;;;-3.01;86.06
43824;BME280;29470;53.550;9.926;2022-12-18T15:01:46;102536.78;;;-3.15;86.17
43824;BME280;29470;53.550;9.926;2022-12-18T15:07:02;102524.78;;;-3.22;86.56
43824;BME280;29470;53.550;9.926;2022-12-18T15:12:22;102522.94;;;-3.29;87.66
43824;BME280;29470;53.550;9.926;2022-12-18T15:17:28;102522.25;;;-3.28;88.39
43824;BME280;29470;53.550;9.926;2022-12-18T15:22:34;102513.47;;;-3.35;88.24
43824;BME280;29470;53.550;9.926;2022-12-18T15:27:38;102508.41;;;-3.35;89.57
43824;BME280;29470;53.550;9.926;2022-12-18T15:32:42;102510.94;;;-3.35;89.66
43824;BME280;29470;53.550;9.926;2022-12-18T15:37:46;102502.44;;;-3.30;90.00
43824;BME280;29470;53.550;9.926;2022-12-18T15:42:51;102484.75;;;-3.24;90.10
43824;BME280;29470;53.550;9.926;2022-12-18T15:48:20;102472.34;;;-3.17;89.94
43824;BME280;29470;53.550;9.926;2022-12-18T15:53:23;102456.25;;;-3.12;89.22
43824;BME280;29470;53.550;9.926;2022-12-18T15:58:27;102452.56;;;-3.03;89.07
43824;BME280;29470;53.550;9.926;2022-12-18T16:03:31;102463.38;;;-3.04;90.01
43824;BME280;29470;53.550;9.926;2022-12-18T16:08:34;102450.72;;;-3.04;89.65
43824;BME280;29470;53.550;9.926;2022-12-18T16:13:40;102455.31;;;-3.18;90.92
43824;BME280;29470;53.550;9.926;2022-12-18T16:18:44;102438.28;;;-3.14;91.18
43824;BME280;29470;53.550;9.926;2022-12-18T16:23:47;102428.16;;;-3.19;90.98
43824;BME280;29470;53.550;9.926;2022-12-18T16:28:50;102425.41;;;-3.15;91.26
43824;BME280;29470;53.550;9.926;2022-12-18T16:39:22;102422.13;;;-3.43;92.21
43824;BME280;29470;53.550;9.926;2022-12-18T16:44:27;102423.31;;;-3.29;92.29
43824;BME280;29470;53.550;9.926;2022-12-18T16:49:29;102413.41;;;-3.33;92.41
43824;BME280;29470;53.550;9.926;2022-12-18T16:54:34;102424.44;;;-3.38;92.77
43824;BME280;29470;53.550;9.926;2022-12-18T16:59:37;102418.94;;;-3.36;92.60
43824;BME280;29470;53.550;9.926;2022-12-18T17:04:40;102422.16;;;-3.37;92.78
43824;BME280;29470;53.550;9.926;2022-12-18T17:09:45;102410.88;;;-3.39;92.33
43824;BME280;29470;53.550;9.926;2022-12-18T17:14:47;102395.03;;;-3.27;92.60
43824;BME280;29470;53.550;9.926;2022-12-18T17:19:51;102385.13;;;-3.25;92.23
43824;BME280;29470;53.550;9.926;2022-12-18T17:24:55;102388.78;;;-3.23;91.96
43824;BME280;29470;53.550;9.926;2022-12-18T17:29:58;102389.72;;;-3.28;92.07
43824;BME280;29470;53.550;9.926;2022-12-18T17:35:01;102392.94;;;-3.35;92.11
43824;BME280;29470;53.550;9.926;2022-12-18T17:40:10;102393.16;;;-3.39;91.92
43824;BME280;29470;53.550;9.926;2022-12-18T17:45:13;102374.78;;;-3.38;91.97
43824;BME280;29470;53.550;9.926;2022-12-18T17:50:16;102357.72;;;-3.33;92.38
43824;BME280;29470;53.550;9.926;2022-12-18T17:55:20;102347.63;;;-3.11;91.17
43824;BME280;29470;53.550;9.926;2022-12-18T18:00:23;102333.59;;;-3.03;90.43
43824;BME280;29470;53.550;9.926;2022-12-18T18:05:26;102322.97;;;-3.00;89.69
43824;BME280;29470;53.550;9.926;2022-12-18T18:10:30;102304.09;;;-2.91;89.48
43824;BME280;29470;53.550;9.926;2022-12-18T18:15:38;102311.00;;;-2.90;90.17
43824;BME280;29470;53.550;9.926;2022-12-18T18:20:41;102301.09;;;-2.94;90.05
43824;BME280;29470;53.550;9.926;2022-12-18T18:25:46;102301.13;;;-3.00;89.84
43824;BME280;29470;53.550;9.926;2022-12-18T18:30:50;102292.13;;;-2.86;89.37
43824;BME280;29470;53.550;9.926;2022-12-18T18:35:53;102283.59;;;-2.81;88.53
43824;BME280;29470;53.550;9.926;2022-12-18T18:41:01;102291.16;;;-2.75;88.55
43824;BME280;29470;53.550;9.926;2022-12-18T18:46:05;102269.53;;;-2.85;88.57
43824;BME280;29470;53.550;9.926;2022-12-18T18:51:10;102257.13;;;-2.89;88.29
43824;BME280;29470;53.550;9.926;2022-12-18T18:56:23;102237.81;;;-2.88;88.48
43824;BME280;29470;53.550;9.926;2022-12-18T19:01:48;102228.38;;;-2.89;87.97
43824;BME280;29470;53.550;9.926;2022-12-18T19:06:53;102218.19;;;-2.78;86.93
43824;BME280;29470;53.550;9.926;2022-12-18T19:11:57;102220.53;;;-2.85;87.16
43824;BME280;29470;53.550;9.926;2022-12-18T19:17:17;102195.16;;;-2.79;87.04
43824;BME280;29470;53.550;9.926;2022-12-18T19:22:28;102212.44;;;-2.83;86.51
43824;BME280;29470;53.550;9.926;2022-12-18T19:27:32;102208.31;;;-2.82;87.35
43824;BME280;29470;53.550;9.926;2022-12-18T19:32:40;102197.19;;;-2.65;86.12
43824;BME280;29470;53.550;9.926;2022-12-18T19:37:42;102183.13;;;-2.69;85.64
43824;BME280;29470;53.550;9.926;2022-12-18T19:42:47;102161.72;;;-2.71;85.61
43824;BME280;29470;53.550;9.926;2022-12-18T19:47:49;102164.78;;;-2.79;85.63
43824;BME280;29470;53.550;9.926;2022-12-18T19:52:52;102162.97;;;-2.86;85.62
43824;BME280;29470;53.550;9.926;2022-12-18T19:57:57;102157.75;;;-2.63;85.44
43824;BME280;29470;53.550;9.926;2022-12-18T20:03:00;102158.94;;;-2.67;85.48
43824;BME280;29470;53.550;9.926;2022-12-18T20:08:18;102147.47;;;-2.71;85.69
43824;BME280;29470;53.550;9.926;2022-12-18T20:13:23;102132.91;;;-2.66;85.72
43824;BME280;29470;53.550;9.926;2022-12-18T20:18:28;102125.31;;;-2.66;84.95
43824;BME280;29470;53.550;9.926;2022-12-18T20:23:32;102112.59;;;-2.60;84.43
43824;BME280;29470;53.550;9.926;2022-12-18T20:28:39;102108.53;;;-2.65;84.75
43824;BME280;29470;53.550;9.926;2022-12-18T20:33:41;102107.66;;;-2.72;84.95
43824;BME280;29470;53.550;9.926;2022-12-18T20:38:49;102098.34;;;-2.60;85.08
43824;BME280;29470;53.550;9.926;2022-12-18T20:43:59;102096.56;;;-2.67;84.62
43824;BME280;29470;53.550;9.926;2022-12-18T20:49:06;102095.81;;;-2.60;84.95
43824;BME280;29470;53.550;9.926;2022-12-18T20:54:09;102084.72;;;-2.55;84.93
43824;BME280;29470;53.550;9.926;2022-12-18T20:59:21;102044.91;;;-2.61;84.57
43824;BME280;29470;53.550;9.926;2022-12-18T21:04:25;102035.91;;;-2.59;83.93
43824;BME280;29470;53.550;9.926;2022-12-18T21:09:29;102034.31;;;-2.59;84.14
43824;BME280;29470;53.550;9.926;2022-12-18T21:14:40;102029.94;;;-2.60;84.90
43824;BME280;29470;53.550;9.926;2022-12-18T21:19:43;102048.91;;;-2.39;84.47
43824;BME280;29470;53.550;9.926;2022-12-18T21:24:47;102111.19;;;-2.53;85.64
43824;BME280;29470;53.550;9.926;2022-12-18T21:29:51;102121.69;;;-2.38;84.44
43824;BME280;29470;53.550;9.926;2022-12-18T21:34:54;102143.72;;;-2.26;84.62
43824;BME280;29470;53.550;9.926;2022-12-18T21:40:03;102122.84;;;-2.42;84.42
43824;BME280;29470;53.550;9.926;2022-12-18T21:45:09;102094.59;;;-2.20;84.12
43824;BME280;29470;53.550;9.926;2022-12-18T21:50:12;102091.44;;;-2.31;83.17
43824;BME280;29470;53.550;9.926;2022-12-18T21:55:15;102091.63;;;-2.24;83.74
43824;BME280;29470;53.550;9.926;2022-12-18T22:00:20;102087.88;;;-2.20;83.97
43824;BME280;29470;53.550;9.926;2022-12-18T22:05:23;102080.88;;;-2.10;82.67
43824;BME280;29470;53.550;9.926;2022-12-18T22:10:26;102076.94;;;-2.08;82.80
43824;BME280;29470;53.550;9.926;2022-12-18T22:15:30;102061.69;;;-2.02;82.10
43824;BME280;29470;53.550;9.926;2022-12-18T22:20:33;102046.06;;;-2.05;82.40
43824;BME280;29470;53.550;9.926;2022-12-18T22:25:36;102042.91;;;-1.91;82.65
43824;BME280;29470;53.550;9.926;2022-12-18T22:30:42;102030.44;;;-1.89;82.23
43824;BME280;29470;53.550;9.926;2022-12-18T22:35:44;102025.38;;;-1.89;82.15
43824;BME280;29470;53.550;9.926;2022-12-18T22:40:48;102027.25;;;-1.94;82.23
43824;BME280;29470;53.550;9.926;2022-12-18T22:45:52;102018.03;;;-1.94;82.08
43824;BME280;29470;53.550;9.926;2022-12-18T22:50:56;102004.38;;;-1.88;81.84
43824;BME280;29470;53.550;9.926;2022-12-18T22:56:00;101984.81;;;-1.89;82.12
43824;BME280;29470;53.550;9.926;2022-12-18T23:01:05;101984.16;;;-1.94;83.31
43824;BME280;29470;53.550;9.926;2022-12-18T23:06:10;101965.50;;;-1.95;82.99
43824;BME280;29470;53.550;9.926;2022-12-18T23:11:15;101952.59;;;-1.96;83.10
43824;BME280;29470;53.550;9.926;2022-12-18T23:16:20;101936.19;;;-1.93;83.06
43824;BME280;29470;53.550;9.926;2022-12-18T23:21:23;101928.59;;;-1.93;83.55
43824;BME280;29470;53.550;9.926;2022-12-18T23:26:27;101931.81;;;-1.94;83.49
43824;BME280;29470;53.550;9.926;2022-12-18T23:31:33;101920.00;;;-1.87;83.47
43824;BME280;29470;53.550;9.926;2022-12-18T23:36:37;101922.66;;;-1.80;84.08
43824;BME280;29470;53.550;9.926;2022-12-18T23:41:47;101916.66;;;-1.81;83.04
43824;BME280;29470;53.550;9.926;2022-12-18T23:46:58;101920.59;;;-1.83;83.10
43824;BME280;29470;53.550;9.926;2022-12-18T23:52:04;101908.03;;;-1.88;83.35
43824;BME280;29470;53.550;9.926;2022-12-18T23:57:07;101901.81;;;-1.90;83.45
